Secreto — 9V2732 — position and weather

sailwx.info

Track history (hours):
 
Tides and Currents Weather Stations Pressure Air Temp Water Temp Dewpoint Dewpoint Depression Visibility Wind Speed Wind Dir Waves Ship Positions

Secreto

Last reported at 2018-Jun-24 06:59 UTC. Time now 2018-Jun-24 07:11 UTC.
Position N 01°10' E 103°37'.

Length 225 m; draft 7.3 m.

Type: Tanker. MMSI: 563853000.

Date/timePositionNaut miles runAvg speedWind from/ knotsBaromVisibWave heightAir tempDewpointWater temp
2018-Jun-24 06:59N 01°10' E 103°37'0 0.2
2018-Jun-24 06:31N 01°10' E 103°37'0 0.1
2018-Jun-24 05:49N 01°10' E 103°37'0 0.0
2018-Jun-24 05:30N 01°10' E 103°37'0 0.2
2018-Jun-24 05:00N 01°10' E 103°37'0 0.0
2018-Jun-24 04:30N 01°10' E 103°37'0 0.1
2018-Jun-24 04:00N 01°10' E 103°37'0 0.0
2018-Jun-24 03:30N 01°10' E 103°37'0 0.0
2018-Jun-24 03:00N 01°10' E 103°37'0 0.4
2018-Jun-24 02:30N 01°10' E 103°37'1 1.5
2018-Jun-24 02:01N 01°10' E 103°37'0 0.8
2018-Jun-24 01:30N 01°10' E 103°36'0 0.1
2018-Jun-24 00:57N 01°10' E 103°36'0 0.2
2018-Jun-24 00:30N 01°10' E 103°36'0 0.1
2018-Jun-23 23:57N 01°10' E 103°36'0 0.2
2018-Jun-23 23:30N 01°10' E 103°36'0 0.2
2018-Jun-23 22:57N 01°10' E 103°36'0 0.0
2018-Jun-23 22:30N 01°10' E 103°36'0 0.0
2018-Jun-23 21:51N 01°10' E 103°36'0 0.2
2018-Jun-23 21:30N 01°10' E 103°36'0 0.0
2018-Jun-23 20:57N 01°10' E 103°36'0 0.0
2018-Jun-23 20:30N 01°10' E 103°36'0 0.0
2018-Jun-23 20:01N 01°10' E 103°36'1 1.9
2018-Jun-23 19:30N 01°10' E 103°37'3 5.4
2018-Jun-23 18:58N 01°11' E 103°40'4 8.8
2018-Jun-23 18:30N 01°08' E 103°43'5 9.4
2018-Jun-23 18:00N 01°10' E 103°47'5 9.8
2018-Jun-23 17:30N 01°12' E 103°52'3 6.3
2018-Jun-23 17:00N 01°14' E 103°55'510.6
2018-Jun-23 16:30N 01°15' E 103°60'510.5
2018-Jun-23 15:59N 01°16' E 104°05'510.1
2018-Jun-23 15:27N 01°17' E 104°10'510.7
2018-Jun-23 15:01N 01°18' E 104°15'510.3
2018-Jun-23 14:29N 01°19' E 104°20'511.1
2018-Jun-23 13:59N 01°23' E 104°25'611.0
2018-Jun-23 13:26N 01°27' E 104°29'510.8
2018-Jun-23 12:58N 01°31' E 104°33'510.9
2018-Jun-23 12:29N 01°34' E 104°37'611.6
2018-Jun-23 11:59N 01°34' E 104°43'20715.9
2018-Jun-22 23:00S 00°42' E 107°18'12320.5 310 / 91010.0 24.023.0
2018-Jun-22 17:00S 02°06' E 108°48'175 9.7 180 / 161011.0 26.023.0
2018-Jun-21 23:00S 04°48' E 107°42'   060 / 171010.0 26.025.030.0
2018-Jun-18 23:00S 05°36' E 104°36'155 7.0 340 / 91009.0 25.022.0
2018-Jun-18 01:00S 06°48' E 102°18'5418.0 100 / 191010.0 26.025.0
2018-Jun-17 22:00S 06°42' E 101°24'6112.2 140 / 191010.0 25.022.0
2018-Jun-17 17:00S 06°30' E 100°24'25715.1 140 / 191011.0 26.023.0
2018-Jun-17 00:00S 04°18' E 096°42'5225.8 110 / 191010.0 27.024.0
2018-Jun-16 22:00S 03°48' E 096°00'37815.8 110 / 191011.0 27.024.0
2018-Jun-15 22:00S 00°54' E 090°24'   140 / 131011.0 27.024.0
Track history (hours):
 
Tides and Currents Weather Stations Pressure Air Temp Water Temp Dewpoint Dewpoint Depression Visibility Wind Speed Wind Dir Waves Ship Positions

Secreto

Last reported at 2018-Jun-24 06:59 UTC. Time now 2018-Jun-24 07:11 UTC.
Position N 01°10' E 103°37'.

Length 225 m; draft 7.3 m.

Type: Tanker. MMSI: 563853000.

Date/timePositionNaut miles runAvg speedWind from/ knotsBaromVisibWave heightAir tempDewpointWater temp
2018-Jun-24 06:59N 01°10' E 103°37'0 0.2
2018-Jun-24 06:31N 01°10' E 103°37'0 0.1
2018-Jun-24 05:49N 01°10' E 103°37'0 0.0
2018-Jun-24 05:30N 01°10' E 103°37'0 0.2
2018-Jun-24 05:00N 01°10' E 103°37'0 0.0
2018-Jun-24 04:30N 01°10' E 103°37'0 0.1
2018-Jun-24 04:00N 01°10' E 103°37'0 0.0
2018-Jun-24 03:30N 01°10' E 103°37'0 0.0
2018-Jun-24 03:00N 01°10' E 103°37'0 0.4
2018-Jun-24 02:30N 01°10' E 103°37'1 1.5
2018-Jun-24 02:01N 01°10' E 103°37'0 0.8
2018-Jun-24 01:30N 01°10' E 103°36'0 0.1
2018-Jun-24 00:57N 01°10' E 103°36'0 0.2
2018-Jun-24 00:30N 01°10' E 103°36'0 0.1
2018-Jun-23 23:57N 01°10' E 103°36'0 0.2
2018-Jun-23 23:30N 01°10' E 103°36'0 0.2
2018-Jun-23 22:57N 01°10' E 103°36'0 0.0
2018-Jun-23 22:30N 01°10' E 103°36'0 0.0
2018-Jun-23 21:51N 01°10' E 103°36'0 0.2
2018-Jun-23 21:30N 01°10' E 103°36'0 0.0
2018-Jun-23 20:57N 01°10' E 103°36'0 0.0
2018-Jun-23 20:30N 01°10' E 103°36'0 0.0
2018-Jun-23 20:01N 01°10' E 103°36'1 1.9
2018-Jun-23 19:30N 01°10' E 103°37'3 5.4
2018-Jun-23 18:58N 01°11' E 103°40'4 8.8
2018-Jun-23 18:30N 01°08' E 103°43'5 9.4
2018-Jun-23 18:00N 01°10' E 103°47'5 9.8
2018-Jun-23 17:30N 01°12' E 103°52'3 6.3
2018-Jun-23 17:00N 01°14' E 103°55'510.6
2018-Jun-23 16:30N 01°15' E 103°60'510.5
2018-Jun-23 15:59N 01°16' E 104°05'510.1
2018-Jun-23 15:27N 01°17' E 104°10'510.7
2018-Jun-23 15:01N 01°18' E 104°15'510.3
2018-Jun-23 14:29N 01°19' E 104°20'511.1
2018-Jun-23 13:59N 01°23' E 104°25'611.0
2018-Jun-23 13:26N 01°27' E 104°29'510.8
2018-Jun-23 12:58N 01°31' E 104°33'510.9
2018-Jun-23 12:29N 01°34' E 104°37'611.6
2018-Jun-23 11:59N 01°34' E 104°43'20715.9
2018-Jun-22 23:00S 00°42' E 107°18'12320.5 310 / 91010.0 24.023.0
2018-Jun-22 17:00S 02°06' E 108°48'175 9.7 180 / 161011.0 26.023.0
2018-Jun-21 23:00S 04°48' E 107°42'   060 / 171010.0 26.025.030.0
2018-Jun-18 23:00S 05°36' E 104°36'155 7.0 340 / 91009.0 25.022.0
2018-Jun-18 01:00S 06°48' E 102°18'5418.0 100 / 191010.0 26.025.0
2018-Jun-17 22:00S 06°42' E 101°24'6112.2 140 / 191010.0 25.022.0
2018-Jun-17 17:00S 06°30' E 100°24'25715.1 140 / 191011.0 26.023.0
2018-Jun-17 00:00S 04°18' E 096°42'5225.8 110 / 191010.0 27.024.0
2018-Jun-16 22:00S 03°48' E 096°00'37815.8 110 / 191011.0 27.024.0
2018-Jun-15 22:00S 00°54' E 090°24'   140 / 131011.0 27.024.0

Dump ship's entire track history